createdAt,value
2017-09-24T00:01:51.923Z,32.93
2017-09-24T00:04:18.356Z,27.83
2017-09-24T00:06:44.826Z,27.03
2017-09-24T00:09:11.323Z,26.50
2017-09-24T00:11:37.759Z,26.93
2017-09-24T00:14:04.244Z,28.13
2017-09-24T00:16:30.680Z,28.27
2017-09-24T00:18:57.111Z,35.10
2017-09-24T00:21:23.566Z,27.47
2017-09-24T00:23:49.991Z,27.47
2017-09-24T00:26:16.435Z,28.80
2017-09-24T00:28:42.885Z,28.67
2017-09-24T00:31:09.332Z,29.00
2017-09-24T00:33:36.612Z,29.30
2017-09-24T00:36:03.045Z,28.50
2017-09-24T00:38:29.580Z,24.57
2017-09-24T00:40:56.059Z,28.00
2017-09-24T00:43:22.534Z,26.17
2017-09-24T00:45:48.961Z,25.80
2017-09-24T00:48:16.198Z,27.67
2017-09-24T00:50:43.403Z,27.77
2017-09-24T00:53:09.838Z,29.83
2017-09-24T00:55:36.299Z,27.67
2017-09-24T00:58:02.781Z,28.10
2017-09-24T01:00:29.222Z,25.33
2017-09-24T01:02:55.686Z,26.73
2017-09-24T01:05:22.134Z,26.50
2017-09-24T01:07:48.587Z,22.53
2017-09-24T01:10:15.734Z,28.43
2017-09-24T01:12:42.205Z,26.10
2017-09-24T01:15:08.675Z,27.33
2017-09-24T01:17:35.138Z,26.70
2017-09-24T01:20:02.423Z,28.00
2017-09-24T01:22:28.875Z,28.27
2017-09-24T01:24:55.303Z,27.90
2017-09-24T01:27:21.791Z,28.07
2017-09-24T01:29:48.947Z,27.77
2017-09-24T01:32:15.419Z,31.80
2017-09-24T01:34:41.931Z,24.77
2017-09-24T01:37:08.364Z,24.05
2017-09-24T01:39:34.803Z,27.37
2017-09-24T01:42:01.238Z,26.03
2017-09-24T01:44:27.690Z,26.07
2017-09-24T01:46:54.171Z,28.77
2017-09-24T01:49:21.323Z,31.40
2017-09-24T01:51:48.512Z,27.53
2017-09-24T01:54:14.932Z,28.23
2017-09-24T01:56:41.391Z,26.00
2017-09-24T01:59:07.830Z,25.40
2017-09-24T02:01:34.318Z,26.60
2017-09-24T02:04:01.483Z,24.83
2017-09-24T02:06:27.923Z,26.17
2017-09-24T02:08:54.378Z,27.10
2017-09-24T02:11:20.879Z,24.75
2017-09-24T02:13:47.334Z,26.87
2017-09-24T02:16:13.760Z,24.30
2017-09-24T02:18:40.199Z,25.90
2017-09-24T02:21:06.648Z,29.67
2017-09-24T02:23:33.044Z,25.40
2017-09-24T02:25:59.618Z,30.53
2017-09-24T02:28:26.066Z,29.80
2017-09-24T02:30:53.244Z,29.15
2017-09-24T02:33:19.692Z,29.57
2017-09-24T02:35:46.171Z,25.07
2017-09-24T02:38:12.619Z,27.23
2017-09-24T02:40:39.783Z,26.87
2017-09-24T02:43:07.007Z,26.53
2017-09-24T02:45:33.440Z,27.43
2017-09-24T02:47:59.907Z,24.90
2017-09-24T02:50:26.371Z,28.17
2017-09-24T02:52:52.794Z,25.93
2017-09-24T02:55:19.231Z,25.00
2017-09-24T02:57:45.671Z,23.85
2017-09-24T03:00:12.149Z,27.55
2017-09-24T03:02:38.598Z,22.55
2017-09-24T03:05:05.819Z,21.67
2017-09-24T03:07:32.298Z,24.30
2017-09-24T03:09:58.740Z,23.80
2017-09-24T03:12:25.189Z,27.62
2017-09-24T03:14:51.612Z,25.83
2017-09-24T03:17:18.226Z,23.93
2017-09-24T03:19:44.687Z,24.63
2017-09-24T03:22:11.147Z,24.87
2017-09-24T03:24:37.602Z,27.73
2017-09-24T03:27:04.793Z,28.73
2017-09-24T03:29:31.246Z,26.53
2017-09-24T03:31:57.684Z,23.87
2017-09-24T03:34:24.239Z,24.92
2017-09-24T03:36:50.790Z,22.00
2017-09-24T03:39:18.119Z,22.25
2017-09-24T03:41:44.550Z,23.30
2017-09-24T03:44:10.990Z,24.10
2017-09-24T03:46:38.231Z,22.75
2017-09-24T03:49:04.683Z,22.62
2017-09-24T03:51:31.121Z,29.67
2017-09-24T03:53:58.310Z,24.58
2017-09-24T03:56:24.773Z,22.87
2017-09-24T03:58:51.263Z,26.25
2017-09-24T04:01:17.715Z,23.77
2017-09-24T04:03:44.172Z,23.15
2017-09-24T04:06:10.615Z,22.25
2017-09-24T04:08:37.051Z,22.58
2017-09-24T04:11:03.480Z,25.05
2017-09-24T04:13:30.082Z,24.23
2017-09-24T04:15:56.543Z,23.40
2017-09-24T04:18:22.975Z,21.75
2017-09-24T04:20:49.431Z,20.20
2017-09-24T04:23:15.871Z,20.08
2017-09-24T04:25:43.027Z,22.60
2017-09-24T04:28:10.238Z,23.02
2017-09-24T04:30:36.659Z,22.40
2017-09-24T04:33:03.122Z,22.10
2017-09-24T04:35:29.624Z,24.40
2017-09-24T04:37:56.231Z,24.20
2017-09-24T04:40:22.679Z,19.62
2017-09-24T04:42:49.114Z,19.30
2017-09-24T04:45:15.588Z,20.48
2017-09-24T04:47:42.123Z,20.70
2017-09-24T04:50:08.659Z,19.92
2017-09-24T04:52:35.075Z,21.40
2017-09-24T04:55:01.507Z,23.08
2017-09-24T04:57:27.983Z,23.40
2017-09-24T04:59:55.168Z,26.83
2017-09-24T05:02:21.636Z,24.02
2017-09-24T05:04:48.075Z,20.95
2017-09-24T05:07:14.520Z,21.20
2017-09-24T05:09:41.000Z,21.95
2017-09-24T05:12:07.442Z,22.65
2017-09-24T05:14:33.931Z,26.20
2017-09-24T05:17:01.124Z,22.20
2017-09-24T05:19:27.550Z,21.50
2017-09-24T05:21:54.234Z,19.60
2017-09-24T05:24:22.175Z,19.48
2017-09-24T05:26:48.611Z,20.60
2017-09-24T05:29:15.043Z,19.17
2017-09-24T05:31:41.483Z,23.42
2017-09-24T05:34:07.941Z,21.90
2017-09-24T05:36:34.398Z,20.23
2017-09-24T05:39:00.862Z,17.77
2017-09-24T05:41:27.307Z,17.90
2017-09-24T05:43:53.750Z,16.23
2017-09-24T05:46:20.255Z,15.83
2017-09-24T05:48:46.684Z,14.17
2017-09-24T05:51:13.227Z,13.40
2017-09-24T05:53:39.641Z,13.37
2017-09-24T05:56:06.107Z,13.77
2017-09-24T05:58:32.590Z,12.70
2017-09-24T06:00:59.771Z,13.40
2017-09-24T06:03:26.238Z,14.20
2017-09-24T06:05:52.750Z,14.60
2017-09-24T06:08:19.194Z,12.27
2017-09-24T06:10:45.612Z,12.73
2017-09-24T06:13:12.071Z,12.20
2017-09-24T06:15:38.555Z,11.53
2017-09-24T06:18:05.001Z,12.37
2017-09-24T06:20:31.443Z,13.50
2017-09-24T06:22:57.867Z,14.73
2017-09-24T06:25:24.271Z,14.10
2017-09-24T06:27:51.449Z,13.53
2017-09-24T06:30:17.899Z,13.03
2017-09-24T06:32:44.371Z,13.70
2017-09-24T06:35:10.800Z,13.07
2017-09-24T06:37:37.270Z,13.87
2017-09-24T06:40:03.690Z,14.13
2017-09-24T06:42:30.899Z,14.80
2017-09-24T06:44:57.317Z,14.60
2017-09-24T06:47:23.757Z,15.63
2017-09-24T06:49:50.272Z,14.40
2017-09-24T06:52:16.723Z,13.97
2017-09-24T06:54:43.179Z,13.57
2017-09-24T06:57:09.638Z,14.07
2017-09-24T06:59:36.867Z,13.73
2017-09-24T07:02:03.351Z,14.27
2017-09-24T07:04:29.791Z,14.17
2017-09-24T07:06:56.251Z,14.23
2017-09-24T07:09:22.704Z,14.63
2017-09-24T07:11:49.178Z,14.30
2017-09-24T07:14:15.626Z,16.13
2017-09-24T07:16:42.103Z,15.40
2017-09-24T07:19:08.561Z,14.10
2017-09-24T07:21:35.743Z,14.10
2017-09-24T07:24:02.164Z,14.60
2017-09-24T07:26:28.582Z,14.80
2017-09-24T07:28:55.033Z,14.60
2017-09-24T07:31:21.456Z,14.73
2017-09-24T07:33:47.914Z,14.73
2017-09-24T07:36:14.378Z,15.87
2017-09-24T07:38:40.867Z,15.30
2017-09-24T07:41:07.320Z,15.67
2017-09-24T07:43:33.863Z,15.83
2017-09-24T07:46:00.319Z,15.20
2017-09-24T07:48:26.850Z,15.90
2017-09-24T07:50:53.345Z,16.60
2017-09-24T07:53:19.783Z,16.30
2017-09-24T07:55:46.255Z,17.03
2017-09-24T07:58:12.709Z,15.37
2017-09-24T08:00:40.036Z,15.80
2017-09-24T08:03:06.516Z,16.60
2017-09-24T08:05:33.206Z,17.53
2017-09-24T08:07:59.712Z,19.40
2017-09-24T08:10:26.150Z,18.60
2017-09-24T08:12:52.743Z,17.63
2017-09-24T08:15:19.190Z,17.77
2017-09-24T08:17:45.653Z,18.40
2017-09-24T08:20:12.145Z,18.87
2017-09-24T08:22:38.591Z,19.20
2017-09-24T08:25:05.063Z,19.87
2017-09-24T08:27:31.527Z,19.43
2017-09-24T08:29:58.935Z,19.30
2017-09-24T08:32:25.546Z,18.67
2017-09-24T08:34:52.018Z,18.20
2017-09-24T08:37:18.631Z,18.07
2017-09-24T08:39:45.087Z,18.63
2017-09-24T08:42:11.574Z,20.33
2017-09-24T08:44:38.031Z,16.80
2017-09-24T08:47:04.499Z,19.20
2017-09-24T08:49:30.981Z,18.47
2017-09-24T08:51:57.413Z,17.97
2017-09-24T08:54:23.864Z,19.33
2017-09-24T08:56:50.329Z,17.47
2017-09-24T08:59:16.822Z,17.37
2017-09-24T09:01:43.261Z,18.30
2017-09-24T09:04:09.800Z,18.53
2017-09-24T09:06:36.255Z,18.07
2017-09-24T09:09:02.735Z,18.40
2017-09-24T09:11:29.960Z,18.70
2017-09-24T09:13:56.582Z,17.90
2017-09-24T09:16:23.015Z,18.60
2017-09-24T09:18:49.444Z,19.17
2017-09-24T09:21:15.892Z,19.03
2017-09-24T09:23:42.339Z,19.00
2017-09-24T09:26:09.531Z,18.60
2017-09-24T09:28:35.983Z,17.67
2017-09-24T09:31:02.544Z,17.63
2017-09-24T09:33:29.063Z,17.87
2017-09-24T09:35:56.050Z,18.50
2017-09-24T09:38:23.266Z,18.17
2017-09-24T09:40:49.897Z,19.50
2017-09-24T09:43:28.405Z,17.87
2017-09-24T09:45:58.853Z,20.27
2017-09-24T09:48:25.338Z,18.23
2017-09-24T09:50:51.792Z,20.23
2017-09-24T09:53:18.336Z,18.43
2017-09-24T09:55:44.805Z,19.90
2017-09-24T09:58:11.288Z,19.60
2017-09-24T10:00:37.712Z,21.43
2017-09-24T10:03:04.243Z,19.27
2017-09-24T10:05:30.759Z,20.53
2017-09-24T10:08:09.489Z,20.47
2017-09-24T10:10:36.062Z,17.90
2017-09-24T10:13:02.552Z,20.63
2017-09-24T10:15:29.076Z,21.07
2017-09-24T10:17:56.467Z,19.70
2017-09-24T10:20:22.909Z,19.83
2017-09-24T10:22:49.363Z,20.30
2017-09-24T10:25:15.804Z,22.10
2017-09-24T10:27:42.431Z,22.20
2017-09-24T10:30:20.830Z,20.60
2017-09-24T10:32:47.295Z,19.80
2017-09-24T10:35:13.744Z,19.17
2017-09-24T10:37:40.896Z,22.10
2017-09-24T10:40:08.114Z,23.27
2017-09-24T10:42:34.556Z,21.10
2017-09-24T10:45:01.035Z,20.13
2017-09-24T10:47:27.502Z,21.10
2017-09-24T10:49:54.018Z,20.63
2017-09-24T10:52:20.513Z,19.70
2017-09-24T10:54:47.686Z,21.80
2017-09-24T10:57:14.123Z,20.60
2017-09-24T10:59:40.555Z,21.33
2017-09-24T11:02:07.026Z,19.10
2017-09-24T11:04:33.530Z,19.37
2017-09-24T11:07:00.022Z,19.50
2017-09-24T11:09:27.226Z,19.10
2017-09-24T11:11:53.657Z,21.20
2017-09-24T11:14:20.146Z,21.93
2017-09-24T11:16:47.319Z,21.10
2017-09-24T11:19:13.791Z,22.03
2017-09-24T11:21:40.244Z,19.67
2017-09-24T11:24:06.707Z,19.47
2017-09-24T11:26:33.966Z,20.17
2017-09-24T11:29:00.580Z,19.30
2017-09-24T11:31:27.787Z,17.57
2017-09-24T11:33:54.436Z,20.83
2017-09-24T11:36:20.930Z,20.57
2017-09-24T11:38:47.324Z,21.57
2017-09-24T11:41:13.764Z,20.10
2017-09-24T11:43:40.908Z,18.00
2017-09-24T11:46:08.066Z,16.73
2017-09-24T11:48:35.303Z,18.03
2017-09-24T11:51:01.812Z,18.03
2017-09-24T11:53:28.310Z,18.10
2017-09-24T11:55:54.930Z,16.10
2017-09-24T11:58:22.116Z,16.40
2017-09-24T12:00:48.524Z,17.50
2017-09-24T12:03:14.964Z,16.80
2017-09-24T12:05:41.434Z,16.40
2017-09-24T12:08:07.814Z,15.77
2017-09-24T12:10:35.011Z,15.77
2017-09-24T12:13:01.428Z,13.17
2017-09-24T12:15:27.927Z,14.67
2017-09-24T12:17:54.471Z,16.23
2017-09-24T12:20:20.945Z,16.57
2017-09-24T12:22:47.412Z,12.80
2017-09-24T12:25:13.884Z,14.13
2017-09-24T12:27:40.476Z,14.50
2017-09-24T12:30:06.938Z,13.20
2017-09-24T12:32:33.404Z,15.03
2017-09-24T12:34:59.923Z,14.60
2017-09-24T12:37:26.386Z,14.10
2017-09-24T12:39:52.852Z,14.10
2017-09-24T12:42:20.167Z,14.17
2017-09-24T12:44:46.645Z,13.63
2017-09-24T12:47:13.884Z,13.43
2017-09-24T12:49:41.139Z,14.90
2017-09-24T12:52:07.615Z,15.20
2017-09-24T12:54:34.198Z,15.50
2017-09-24T12:57:00.691Z,14.40
2017-09-24T12:59:27.179Z,14.37
2017-09-24T13:01:54.479Z,16.33
2017-09-24T13:04:20.972Z,15.23
2017-09-24T13:06:48.180Z,16.57
2017-09-24T13:09:14.606Z,16.20
2017-09-24T13:11:41.103Z,15.40
2017-09-24T13:14:07.587Z,14.13
2017-09-24T13:16:34.095Z,14.23
2017-09-24T13:19:00.600Z,14.37
2017-09-24T13:21:27.823Z,14.57
2017-09-24T13:23:54.275Z,14.30
2017-09-24T13:26:21.464Z,15.30
2017-09-24T13:28:48.095Z,15.67
2017-09-24T13:31:14.567Z,14.93
2017-09-24T13:33:41.017Z,16.07
2017-09-24T13:36:07.563Z,14.97
2017-09-24T13:38:34.775Z,14.33
2017-09-24T13:41:01.228Z,14.53
2017-09-24T13:43:27.718Z,13.23
2017-09-24T13:45:54.173Z,13.80
2017-09-24T13:48:20.617Z,13.70
2017-09-24T13:50:47.093Z,14.07
2017-09-24T13:53:14.388Z,14.03
2017-09-24T13:55:40.911Z,13.77
2017-09-24T13:58:07.391Z,14.97
2017-09-24T14:00:33.824Z,14.90
2017-09-24T14:03:01.043Z,15.20
2017-09-24T14:05:27.535Z,14.43
2017-09-24T14:07:54.127Z,14.93
2017-09-24T14:10:20.626Z,14.80
2017-09-24T14:12:47.102Z,15.43
2017-09-24T14:15:13.582Z,13.20
2017-09-24T14:17:40.045Z,13.43
2017-09-24T14:20:06.562Z,16.33
2017-09-24T14:22:33.027Z,14.37
2017-09-24T14:24:59.472Z,14.27
2017-09-24T14:27:26.107Z,15.70
2017-09-24T14:29:52.739Z,17.23
2017-09-24T14:32:19.191Z,13.93
2017-09-24T14:34:45.638Z,15.03
2017-09-24T14:37:12.851Z,13.30
2017-09-24T14:39:39.327Z,14.13
2017-09-24T14:42:06.522Z,15.30
2017-09-24T14:44:32.945Z,14.97
2017-09-24T14:46:59.439Z,16.90
2017-09-24T14:49:26.754Z,16.10
2017-09-24T14:51:53.241Z,14.43
2017-09-24T14:54:19.688Z,16.63
2017-09-24T14:56:46.158Z,16.90
2017-09-24T14:59:12.635Z,18.63
2017-09-24T15:01:39.142Z,18.17
2017-09-24T15:04:05.603Z,15.60
2017-09-24T15:06:32.106Z,16.70
2017-09-24T15:08:58.546Z,18.60
2017-09-24T15:11:25.015Z,17.23
2017-09-24T15:13:51.495Z,18.57
2017-09-24T15:16:18.043Z,17.67
2017-09-24T15:18:44.501Z,17.03
2017-09-24T15:21:10.982Z,18.27
2017-09-24T15:23:37.440Z,19.13
2017-09-24T15:26:03.980Z,17.30
2017-09-24T15:28:30.444Z,16.20
2017-09-24T15:30:56.863Z,16.23
2017-09-24T15:33:24.254Z,17.20
2017-09-24T15:35:50.697Z,15.77
2017-09-24T15:38:17.148Z,18.00
2017-09-24T15:40:43.597Z,16.83
2017-09-24T15:43:10.044Z,18.03
2017-09-24T15:45:37.275Z,17.33
2017-09-24T15:48:04.526Z,15.53
2017-09-24T15:50:31.721Z,15.20
2017-09-24T15:52:58.160Z,14.90
2017-09-24T15:55:24.655Z,15.47
2017-09-24T15:57:51.161Z,15.97
2017-09-24T16:00:17.612Z,14.90
2017-09-24T16:02:44.866Z,16.83
2017-09-24T16:05:12.815Z,16.10
2017-09-24T16:07:39.317Z,16.00
2017-09-24T16:10:05.797Z,15.40
2017-09-24T16:12:32.993Z,16.03
2017-09-24T16:14:59.434Z,15.10
2017-09-24T16:17:25.932Z,14.73
2017-09-24T16:19:53.183Z,15.10
2017-09-24T16:22:20.387Z,15.30
2017-09-24T16:24:46.857Z,14.30
2017-09-24T16:27:14.091Z,16.30
2017-09-24T16:29:40.865Z,15.10
2017-09-24T16:32:08.108Z,14.93
2017-09-24T16:34:35.371Z,14.47
2017-09-24T16:37:02.568Z,14.40
2017-09-24T16:39:29.048Z,15.87
2017-09-24T16:41:56.239Z,13.93
2017-09-24T16:44:22.726Z,14.97
2017-09-24T16:46:49.204Z,14.20
2017-09-24T16:49:15.719Z,14.50
2017-09-24T16:51:42.180Z,14.63
2017-09-24T16:54:08.704Z,13.00
2017-09-24T16:56:35.166Z,12.83
2017-09-24T16:59:01.627Z,12.80
2017-09-24T17:01:28.881Z,13.60
2017-09-24T17:03:55.310Z,11.97
2017-09-24T17:06:23.254Z,11.07
2017-09-24T17:08:50.454Z,11.97
2017-09-24T17:11:17.011Z,10.27
2017-09-24T17:13:43.471Z,11.93
2017-09-24T17:16:09.935Z,11.77
2017-09-24T17:18:37.182Z,10.43
2017-09-24T17:21:05.099Z,11.43
2017-09-24T17:23:31.610Z,12.50
2017-09-24T17:25:58.056Z,11.60
2017-09-24T17:28:24.595Z,12.70
2017-09-24T17:30:51.099Z,11.83
2017-09-24T17:33:19.193Z,11.67
2017-09-24T17:35:45.779Z,12.00
2017-09-24T17:38:12.259Z,11.90
2017-09-24T17:40:38.755Z,10.93
2017-09-24T17:43:06.701Z,11.70
2017-09-24T17:45:33.219Z,12.43
2017-09-24T17:48:01.424Z,13.13
2017-09-24T17:50:27.938Z,14.90
2017-09-24T17:52:54.418Z,13.47
2017-09-24T17:55:21.700Z,12.93
2017-09-24T17:57:48.295Z,12.77
2017-09-24T18:00:15.485Z,13.07
2017-09-24T18:02:42.028Z,13.40
2017-09-24T18:05:08.501Z,14.37
2017-09-24T18:07:35.744Z,12.77
2017-09-24T18:10:02.277Z,13.47
2017-09-24T18:12:28.835Z,13.33
2017-09-24T18:14:56.092Z,13.63
2017-09-24T18:17:22.543Z,14.70
2017-09-24T18:19:49.033Z,37.47
2017-09-24T18:22:15.527Z,18.73
2017-09-24T18:24:42.059Z,14.47
2017-09-24T18:27:08.608Z,12.17
2017-09-24T18:29:35.041Z,15.97
2017-09-24T18:32:01.531Z,12.67
2017-09-24T18:34:28.775Z,17.70
2017-09-24T18:36:56.118Z,13.37
2017-09-24T18:39:22.741Z,13.73
2017-09-24T18:41:49.213Z,14.07
2017-09-24T18:44:16.412Z,12.57
2017-09-24T18:46:43.004Z,12.00
2017-09-24T18:49:10.223Z,13.07
2017-09-24T18:51:38.191Z,13.87
2017-09-24T18:54:04.650Z,12.23
2017-09-24T18:56:33.550Z,13.97
2017-09-24T18:59:00.809Z,12.27
2017-09-24T19:01:27.298Z,13.17
2017-09-24T19:03:53.790Z,17.63
2017-09-24T19:06:20.250Z,19.83
2017-09-24T19:08:46.822Z,20.03
2017-09-24T19:11:14.040Z,16.47
2017-09-24T19:13:40.592Z,15.57
2017-09-24T19:16:07.791Z,18.10
2017-09-24T19:18:34.358Z,14.27
2017-09-24T19:21:01.684Z,13.73
2017-09-24T19:23:28.244Z,14.37
2017-09-24T19:25:54.864Z,14.20
2017-09-24T19:28:21.433Z,13.50
2017-09-24T19:30:49.067Z,14.33
2017-09-24T19:33:15.639Z,15.60
2017-09-24T19:35:43.078Z,14.67
2017-09-24T19:38:09.621Z,13.50
2017-09-24T19:40:36.184Z,12.87
2017-09-24T19:43:03.674Z,14.93
2017-09-24T19:45:30.311Z,17.57
2017-09-24T19:47:56.933Z,18.67
2017-09-24T19:50:23.442Z,17.87
2017-09-24T19:52:50.907Z,15.87
2017-09-24T19:55:18.113Z,13.83
2017-09-24T19:57:44.583Z,13.37
2017-09-24T20:00:11.810Z,15.00
2017-09-24T20:02:38.313Z,15.23
2017-09-24T20:05:04.847Z,17.00
2017-09-24T20:07:31.296Z,16.40
2017-09-24T20:09:57.773Z,18.33
2017-09-24T20:12:24.998Z,16.17
2017-09-24T20:14:51.466Z,17.27
2017-09-24T20:17:18.840Z,15.53
2017-09-24T20:19:45.275Z,14.70
2017-09-24T20:22:11.757Z,14.73
2017-09-24T20:24:38.250Z,14.63
2017-09-24T20:27:04.718Z,15.33
2017-09-24T20:29:31.185Z,14.13
2017-09-24T20:31:58.365Z,16.13
2017-09-24T20:34:24.867Z,16.13
2017-09-24T20:36:52.075Z,15.47
2017-09-24T20:39:18.536Z,17.27
2017-09-24T20:41:45.007Z,16.97
2017-09-24T20:44:11.465Z,17.80
2017-09-24T20:46:37.940Z,16.67
2017-09-24T20:49:04.444Z,17.50
2017-09-24T20:51:30.914Z,14.37
2017-09-24T20:53:58.156Z,15.30
2017-09-24T20:56:24.590Z,18.47
2017-09-24T20:58:51.043Z,18.37
2017-09-24T21:01:18.368Z,19.23
2017-09-24T21:03:44.857Z,19.00
2017-09-24T21:06:11.312Z,18.50
2017-09-24T21:08:37.761Z,19.37
2017-09-24T21:11:04.215Z,18.53
2017-09-24T21:13:30.651Z,17.30
2017-09-24T21:15:57.959Z,17.67
2017-09-24T21:18:24.395Z,17.87
2017-09-24T21:20:50.912Z,18.97
2017-09-24T21:23:17.379Z,16.43
2017-09-24T21:25:43.861Z,19.33
2017-09-24T21:28:10.336Z,17.07
2017-09-24T21:30:36.782Z,16.33
2017-09-24T21:33:03.243Z,15.87
2017-09-24T21:35:30.479Z,15.63
2017-09-24T21:37:56.903Z,16.47
2017-09-24T21:40:23.403Z,19.80
2017-09-24T21:42:49.833Z,17.70
2017-09-24T21:45:16.342Z,18.67
2017-09-24T21:47:42.839Z,16.00
2017-09-24T21:50:09.266Z,15.87
2017-09-24T21:52:35.735Z,25.57
2017-09-24T21:55:02.974Z,22.20
2017-09-24T21:57:30.171Z,21.10
2017-09-24T21:59:56.682Z,20.10
2017-09-24T22:02:23.226Z,17.50
2017-09-24T22:04:49.746Z,17.40
2017-09-24T22:07:16.983Z,20.87
2017-09-24T22:09:44.435Z,18.03
2017-09-24T22:12:11.643Z,22.33
2017-09-24T22:14:38.130Z,23.13
2017-09-24T22:17:05.301Z,18.03
2017-09-24T22:19:31.754Z,22.53
2017-09-24T22:21:58.280Z,14.73
2017-09-24T22:24:24.772Z,14.03
2017-09-24T22:26:51.987Z,13.73
2017-09-24T22:29:18.495Z,15.10
2017-09-24T22:31:44.970Z,14.67
2017-09-24T22:34:11.435Z,15.70
2017-09-24T22:36:38.650Z,14.63
2017-09-24T22:39:05.090Z,16.17
2017-09-24T22:41:31.588Z,13.83
2017-09-24T22:43:58.072Z,15.97
2017-09-24T22:46:24.551Z,15.30
2017-09-24T22:48:51.014Z,14.43
2017-09-24T22:51:17.501Z,17.13
2017-09-24T22:53:43.934Z,14.87
2017-09-24T22:56:10.373Z,15.50
2017-09-24T22:58:36.838Z,15.83
2017-09-24T23:01:03.359Z,13.57
2017-09-24T23:03:29.843Z,14.97
2017-09-24T23:05:57.026Z,14.70
2017-09-24T23:08:23.463Z,13.97
2017-09-24T23:10:49.893Z,13.80
2017-09-24T23:13:16.407Z,14.63
2017-09-24T23:15:42.867Z,16.80
2017-09-24T23:18:09.295Z,14.93
2017-09-24T23:20:35.751Z,15.07
2017-09-24T23:23:02.234Z,14.47
2017-09-24T23:25:29.443Z,21.23
2017-09-24T23:27:55.899Z,20.73
2017-09-24T23:30:22.396Z,17.50
2017-09-24T23:32:48.844Z,14.50
2017-09-24T23:35:15.304Z,13.80
2017-09-24T23:37:41.782Z,13.60
2017-09-24T23:40:08.207Z,13.53
2017-09-24T23:42:34.670Z,14.10
2017-09-24T23:45:01.108Z,14.47
2017-09-24T23:47:27.562Z,15.70
2017-09-24T23:49:54.207Z,13.80
2017-09-24T23:52:20.631Z,12.30
2017-09-24T23:54:47.099Z,14.33
2017-09-24T23:57:13.556Z,15.90
2017-09-24T23:59:40.015Z,15.07
